PWSweather.com
Personal Weather Stations
Station Observations
PWSTHORN2
Thornton, Nh Usa, Thornton, NH 03285

Thornton, Nh UsaThornton, NH 03285

Lat: 43.8870699, Lon: -71.6632763

Elevation: 640

Station Type: Ambient WS 2080

High Low Average
Temperature 71.6°F22.0°C 59.7°F15.4°C 65.5°F18.6°C
Dew Point 57.9°F14.4°C 46.7°F8.2°C 52.1°F11.2°C
Winds 5.4 mph 8.7 kmh Calm Calm 1.0 mph SSE1.6 kmh SSE
Wind Gusts 9.2 mph14.8 kmh -- 3.0 mph4.8 kmh
Humidity 62% 62% 62%
Pressure 29.44 in997.0 mb 29.39 in995.3 mb -
Precipitation 0.11 in2.8 mm - -
Hour Temp Dew Point Humidity Winds Wind Gusts Pressure Precip Precip Rate Daily Precip Total
12:00 AM 70.5°F21.4°C 56.9°F13.8°C 62% 6.0 mph NE9.7 kmh NE 14.5 mph23.3 kmh 29.41 in995.9 mb 0.00 in0.0 mm 0.00 in0.0 mm 0.00 in0.0 mm
12:05 AM 70.5°F21.4°C 56.9°F13.8°C 62% 0.7 mph N1.1 kmh N 14.5 mph23.3 kmh 29.41 in995.9 mb 0.00 in0.0 mm 0.00 in0.0 mm 0.00 in0.0 mm
12:10 AM 70.5°F21.4°C 56.9°F13.8°C 62% 5.4 mph NE8.7 kmh NE 12.1 mph19.5 kmh 29.41 in995.9 mb 0.00 in0.0 mm 0.00 in0.0 mm 0.00 in0.0 mm
12:15 AM 70.3°F21.3°C 56.7°F13.7°C 62% 7.6 mph NNE12.2 kmh NNE 10.7 mph17.2 kmh 29.41 in995.9 mb 0.00 in0.0 mm 0.00 in0.0 mm 0.00 in0.0 mm
12:20 AM 70.2°F21.2°C 56.6°F13.7°C 62% 9.2 mph NE14.8 kmh NE 25.1 mph40.4 kmh 29.41 in995.9 mb 0.00 in0.0 mm 0.00 in0.0 mm 0.00 in0.0 mm
12:25 AM 69.8°F21.0°C 56.2°F13.4°C 62% 10.7 mph NE17.2 kmh NE 25.1 mph40.4 kmh 29.42 in996.3 mb 0.00 in0.0 mm 0.00 in0.0 mm 0.00 in0.0 mm
12:30 AM 68.5°F20.3°C 55.0°F12.8°C 62% 7.6 mph E12.2 kmh E 22.1 mph35.6 kmh 29.43 in996.6 mb 0.00 in0.0 mm 0.00 in0.0 mm 0.00 in0.0 mm
12:35 AM 67.5°F19.7°C 54.0°F12.2°C 62% 9.2 mph SE14.8 kmh SE 15.9 mph25.6 kmh 29.43 in996.6 mb 0.00 in0.0 mm 0.00 in0.0 mm 0.00 in0.0 mm
12:40 AM 66.9°F19.4°C 53.5°F11.9°C 62% 5.4 mph S8.7 kmh S 14.5 mph23.3 kmh 29.43 in996.6 mb 0.00 in0.0 mm 0.00 in0.0 mm 0.00 in0.0 mm
12:45 AM 66.4°F19.1°C 53.0°F11.7°C 62% 0.7 mph S1.1 kmh S 11.4 mph18.3 kmh 29.43 in996.6 mb 0.00 in0.0 mm 0.00 in0.0 mm 0.00 in0.0 mm
12:50 AM 66.0°F18.9°C 52.6°F11.4°C 62% 2.2 mph S3.5 kmh S 6.9 mph11.1 kmh 29.43 in996.6 mb 0.00 in0.0 mm 0.00 in0.0 mm 0.00 in0.0 mm
12:55 AM 65.7°F18.7°C 52.3°F11.3°C 62% 1.6 mph S2.6 kmh S 7.6 mph12.2 kmh 29.42 in996.3 mb 0.00 in0.0 mm 0.00 in0.0 mm 0.00 in0.0 mm
01:00 AM 65.7°F18.7°C 52.3°F11.3°C 62% 5.4 mph S8.7 kmh S 9.2 mph14.8 kmh 29.43 in996.6 mb 0.00 in0.0 mm 0.00 in0.0 mm 0.00 in0.0 mm
01:05 AM 65.5°F18.6°C 52.1°F11.2°C 62% 2.2 mph S3.5 kmh S 9.2 mph14.8 kmh 29.43 in996.6 mb 0.00 in0.0 mm 0.00 in0.0 mm 0.00 in0.0 mm
01:10 AM 65.3°F18.5°C 52.0°F11.1°C 62% 2.2 mph S3.5 kmh S 7.6 mph12.2 kmh 29.43 in996.6 mb 0.00 in0.0 mm 0.00 in0.0 mm 0.00 in0.0 mm
01:15 AM 65.3°F18.5°C 52.0°F11.1°C 62% 1.6 mph S2.6 kmh S 7.6 mph12.2 kmh 29.42 in996.3 mb 0.00 in0.0 mm 0.00 in0.0 mm 0.00 in0.0 mm
01:20 AM 65.5°F18.6°C 52.1°F11.2°C 62% 0.7 mph SSW1.1 kmh SSW 9.2 mph14.8 kmh 29.42 in996.3 mb 0.00 in0.0 mm 0.00 in0.0 mm 0.00 in0.0 mm
01:25 AM 65.3°F18.5°C 52.0°F11.1°C 62% Calm Calm 9.2 mph14.8 kmh 29.41 in995.9 mb 0.00 in0.0 mm 0.00 in0.0 mm 0.00 in0.0 mm
01:30 AM 65.1°F18.4°C 51.8°F11.0°C 62% 2.2 mph SW3.5 kmh SW 5.4 mph8.7 kmh 29.41 in995.9 mb 0.00 in0.0 mm 0.00 in0.0 mm 0.00 in0.0 mm
01:35 AM 64.9°F18.3°C 51.6°F10.9°C 62% 2.2 mph SW3.5 kmh SW 5.4 mph8.7 kmh 29.42 in996.3 mb 0.00 in0.0 mm 0.00 in0.0 mm 0.00 in0.0 mm
01:40 AM 64.9°F18.3°C 51.6°F10.9°C 62% 2.2 mph SW3.5 kmh SW 5.4 mph8.7 kmh 29.42 in996.3 mb 0.00 in0.0 mm 0.00 in0.0 mm 0.00 in0.0 mm
01:45 AM 64.9°F18.3°C 51.6°F10.9°C 62% Calm Calm 5.4 mph8.7 kmh 29.43 in996.6 mb 0.00 in0.0 mm 0.00 in0.0 mm 0.00 in0.0 mm
01:50 AM 64.9°F18.3°C 51.6°F10.9°C 62% 0.7 mph SW1.1 kmh SW 5.4 mph8.7 kmh 29.43 in996.6 mb 0.00 in0.0 mm 0.00 in0.0 mm 0.00 in0.0 mm
01:55 AM 64.2°F17.9°C 50.9°F10.5°C 62% 1.6 mph SW2.6 kmh SW 3.1 mph5.0 kmh 29.43 in996.6 mb 0.00 in0.0 mm 0.00 in0.0 mm 0.00 in0.0 mm
02:00 AM 63.9°F17.7°C 50.6°F10.3°C 62% Calm Calm 3.1 mph5.0 kmh 29.42 in996.3 mb 0.00 in0.0 mm 0.00 in0.0 mm 0.00 in0.0 mm
02:05 AM 63.5°F17.5°C 50.3°F10.2°C 62% 1.6 mph SW2.6 kmh SW 3.1 mph5.0 kmh 29.42 in996.3 mb 0.00 in0.0 mm 0.00 in0.0 mm 0.00 in0.0 mm
02:10 AM 63.5°F17.5°C 50.3°F10.2°C 62% 0.7 mph SW1.1 kmh SW 3.1 mph5.0 kmh 29.42 in996.3 mb 0.00 in0.0 mm 0.00 in0.0 mm 0.00 in0.0 mm
02:15 AM 63.3°F17.4°C 50.1°F10.1°C 62% Calm Calm 3.1 mph5.0 kmh 29.42 in996.3 mb 0.00 in0.0 mm 0.00 in0.0 mm 0.00 in0.0 mm
02:20 AM 63.1°F17.3°C 49.9°F9.9°C 62% 2.2 mph SW3.5 kmh SW 4.5 mph7.2 kmh 29.42 in996.3 mb 0.00 in0.0 mm 0.00 in0.0 mm 0.00 in0.0 mm
02:25 AM 63.5°F17.5°C 50.3°F10.2°C 62% Calm Calm 4.5 mph7.2 kmh 29.41 in995.9 mb 0.00 in0.0 mm 0.00 in0.0 mm 0.00 in0.0 mm
02:30 AM 63.5°F17.5°C 50.3°F10.2°C 62% 0.7 mph SW1.1 kmh SW 3.1 mph5.0 kmh 29.42 in996.3 mb 0.00 in0.0 mm 0.00 in0.0 mm 0.00 in0.0 mm
02:35 AM 63.3°F17.4°C 50.1°F10.1°C 62% 2.2 mph SW3.5 kmh SW 3.8 mph6.1 kmh 29.41 in995.9 mb 0.00 in0.0 mm 0.00 in0.0 mm 0.00 in0.0 mm
02:40 AM 63.3°F17.4°C 50.1°F10.1°C 62% 1.6 mph SW2.6 kmh SW 3.8 mph6.1 kmh 29.42 in996.3 mb 0.00 in0.0 mm 0.00 in0.0 mm 0.00 in0.0 mm
02:45 AM 63.3°F17.4°C 50.1°F10.1°C 62% 2.2 mph SW3.5 kmh SW 3.8 mph6.1 kmh 29.42 in996.3 mb 0.00 in0.0 mm 0.00 in0.0 mm 0.00 in0.0 mm
02:50 AM 63.7°F17.6°C 50.4°F10.2°C 62% 0.7 mph SW1.1 kmh SW 3.1 mph5.0 kmh 29.42 in996.3 mb 0.00 in0.0 mm 0.00 in0.0 mm 0.00 in0.0 mm
02:55 AM 63.9°F17.7°C 50.6°F10.3°C 62% Calm Calm 3.1 mph5.0 kmh 29.42 in996.3 mb 0.00 in0.0 mm 0.00 in0.0 mm 0.00 in0.0 mm
03:00 AM 63.9°F17.7°C 50.6°F10.3°C 62% Calm Calm 2.2 mph3.5 kmh 29.42 in996.3 mb 0.00 in0.0 mm 0.00 in0.0 mm 0.00 in0.0 mm
03:05 AM 64.2°F17.9°C 50.9°F10.5°C 62% Calm Calm 3.1 mph5.0 kmh 29.41 in995.9 mb 0.00 in0.0 mm 0.00 in0.0 mm 0.00 in0.0 mm
03:10 AM 64.4°F18.0°C 51.1°F10.6°C 62% Calm Calm 3.8 mph6.1 kmh 29.41 in995.9 mb 0.00 in0.0 mm 0.00 in0.0 mm 0.00 in0.0 mm
03:15 AM 64.8°F18.2°C 51.5°F10.8°C 62% Calm Calm 5.4 mph8.7 kmh 29.41 in995.9 mb 0.00 in0.0 mm 0.00 in0.0 mm 0.00 in0.0 mm
03:20 AM 64.9°F18.3°C 51.6°F10.9°C 62% 0.7 mph SW1.1 kmh SW 5.4 mph8.7 kmh 29.41 in995.9 mb 0.00 in0.0 mm 0.00 in0.0 mm 0.00 in0.0 mm
03:25 AM 65.1°F18.4°C 51.8°F11.0°C 62% 0.7 mph SW1.1 kmh SW 5.4 mph8.7 kmh 29.41 in995.9 mb 0.00 in0.0 mm 0.00 in0.0 mm 0.00 in0.0 mm
03:30 AM 65.3°F18.5°C 52.0°F11.1°C 62% 1.6 mph SW2.6 kmh SW 6.0 mph9.7 kmh 29.41 in995.9 mb 0.00 in0.0 mm 0.00 in0.0 mm 0.00 in0.0 mm
03:35 AM 65.3°F18.5°C 52.0°F11.1°C 62% 1.6 mph SW2.6 kmh SW 6.0 mph9.7 kmh 29.41 in995.9 mb 0.00 in0.0 mm 0.00 in0.0 mm 0.00 in0.0 mm
03:40 AM 65.5°F18.6°C 52.1°F11.2°C 62% 0.7 mph SW1.1 kmh SW 3.8 mph6.1 kmh 29.41 in995.9 mb 0.00 in0.0 mm 0.00 in0.0 mm 0.00 in0.0 mm
03:45 AM 65.3°F18.5°C 52.0°F11.1°C 62% 0.7 mph SW1.1 kmh SW 3.1 mph5.0 kmh 29.41 in995.9 mb 0.00 in0.0 mm 0.00 in0.0 mm 0.00 in0.0 mm
03:50 AM 65.5°F18.6°C 52.1°F11.2°C 62% 0.7 mph SW1.1 kmh SW 3.1 mph5.0 kmh 29.41 in995.9 mb 0.00 in0.0 mm 0.00 in0.0 mm 0.00 in0.0 mm
03:55 AM 65.5°F18.6°C 52.1°F11.2°C 62% 2.2 mph SW3.5 kmh SW 5.4 mph8.7 kmh 29.41 in995.9 mb 0.00 in0.0 mm 0.00 in0.0 mm 0.00 in0.0 mm
04:00 AM 65.7°F18.7°C 52.3°F11.3°C 62% 0.7 mph SW1.1 kmh SW 5.4 mph8.7 kmh 29.41 in995.9 mb 0.00 in0.0 mm 0.00 in0.0 mm 0.00 in0.0 mm
04:05 AM 65.3°F18.5°C 52.0°F11.1°C 62% 0.7 mph SW1.1 kmh SW 5.4 mph8.7 kmh 29.42 in996.3 mb 0.00 in0.0 mm 0.00 in0.0 mm 0.00 in0.0 mm
04:10 AM 65.3°F18.5°C 52.0°F11.1°C 62% 1.6 mph NNW2.6 kmh NNW 4.5 mph7.2 kmh 29.42 in996.3 mb 0.00 in0.0 mm 0.00 in0.0 mm 0.00 in0.0 mm
04:15 AM 65.5°F18.6°C 52.1°F11.2°C 62% 0.7 mph N1.1 kmh N 4.5 mph7.2 kmh 29.42 in996.3 mb 0.00 in0.0 mm 0.00 in0.0 mm 0.00 in0.0 mm
04:20 AM 65.5°F18.6°C 52.1°F11.2°C 62% 0.7 mph N1.1 kmh N 3.1 mph5.0 kmh 29.41 in995.9 mb 0.00 in0.0 mm 0.00 in0.0 mm 0.00 in0.0 mm
04:25 AM 65.5°F18.6°C 52.1°F11.2°C 62% 2.2 mph N3.5 kmh N 4.5 mph7.2 kmh 29.41 in995.9 mb 0.00 in0.0 mm 0.00 in0.0 mm 0.00 in0.0 mm
04:30 AM 65.7°F18.7°C 52.3°F11.3°C 62% 0.7 mph N1.1 kmh N 4.5 mph7.2 kmh 29.41 in995.9 mb 0.00 in0.0 mm 0.00 in0.0 mm 0.00 in0.0 mm
04:35 AM 65.5°F18.6°C 52.1°F11.2°C 62% 3.8 mph N6.1 kmh N 5.4 mph8.7 kmh 29.41 in995.9 mb 0.00 in0.0 mm 0.00 in0.0 mm 0.00 in0.0 mm
04:40 AM 65.5°F18.6°C 52.1°F11.2°C 62% 3.1 mph S5.0 kmh S 6.0 mph9.7 kmh 29.41 in995.9 mb 0.00 in0.0 mm 0.00 in0.0 mm 0.00 in0.0 mm
04:45 AM 65.3°F18.5°C 52.0°F11.1°C 62% 3.8 mph S6.1 kmh S 6.0 mph9.7 kmh 29.41 in995.9 mb 0.00 in0.0 mm 0.00 in0.0 mm 0.00 in0.0 mm
04:50 AM 65.3°F18.5°C 52.0°F11.1°C 62% 2.2 mph S3.5 kmh S 6.0 mph9.7 kmh 29.41 in995.9 mb 0.00 in0.0 mm 0.00 in0.0 mm 0.00 in0.0 mm
04:55 AM 65.1°F18.4°C 51.8°F11.0°C 62% 4.5 mph S7.2 kmh S 6.0 mph9.7 kmh 29.41 in995.9 mb 0.00 in0.0 mm 0.00 in0.0 mm 0.00 in0.0 mm
05:00 AM 65.1°F18.4°C 51.8°F11.0°C 62% 3.8 mph S6.1 kmh S 6.0 mph9.7 kmh 29.41 in995.9 mb 0.00 in0.0 mm 0.00 in0.0 mm 0.00 in0.0 mm
05:05 AM 65.1°F18.4°C 51.8°F11.0°C 62% 1.6 mph S2.6 kmh S 6.0 mph9.7 kmh 29.41 in995.9 mb 0.00 in0.0 mm 0.00 in0.0 mm 0.00 in0.0 mm
05:10 AM 64.9°F18.3°C 51.6°F10.9°C 62% 3.1 mph S5.0 kmh S 5.4 mph8.7 kmh 29.41 in995.9 mb 0.00 in0.0 mm 0.00 in0.0 mm 0.00 in0.0 mm
05:15 AM 64.6°F18.1°C 51.3°F10.7°C 62% 1.6 mph S2.6 kmh S 5.4 mph8.7 kmh 29.41 in995.9 mb 0.00 in0.0 mm 0.00 in0.0 mm 0.00 in0.0 mm
05:20 AM 64.0°F17.8°C 50.8°F10.4°C 62% 0.7 mph S1.1 kmh S 5.4 mph8.7 kmh 29.41 in995.9 mb 0.00 in0.0 mm 0.00 in0.0 mm 0.00 in0.0 mm
05:25 AM 63.7°F17.6°C 50.4°F10.2°C 62% 0.7 mph S1.1 kmh S 3.1 mph5.0 kmh 29.41 in995.9 mb 0.00 in0.0 mm 0.00 in0.0 mm 0.00 in0.0 mm
05:30 AM 64.0°F17.8°C 50.8°F10.4°C 62% 3.1 mph S5.0 kmh S 5.4 mph8.7 kmh 29.41 in995.9 mb 0.00 in0.0 mm 0.00 in0.0 mm 0.00 in0.0 mm
05:35 AM 64.6°F18.1°C 51.3°F10.7°C 62% 1.6 mph S2.6 kmh S 5.4 mph8.7 kmh 29.42 in996.3 mb 0.00 in0.0 mm 0.00 in0.0 mm 0.00 in0.0 mm
05:40 AM 64.6°F18.1°C 51.3°F10.7°C 62% 4.5 mph S7.2 kmh S 6.0 mph9.7 kmh 29.41 in995.9 mb 0.00 in0.0 mm 0.00 in0.0 mm 0.00 in0.0 mm
05:45 AM 64.9°F18.3°C 51.6°F10.9°C 62% 3.8 mph S6.1 kmh S 6.9 mph11.1 kmh 29.42 in996.3 mb 0.00 in0.0 mm 0.00 in0.0 mm 0.00 in0.0 mm
05:50 AM 64.9°F18.3°C 51.6°F10.9°C 62% 0.7 mph S1.1 kmh S 6.9 mph11.1 kmh 29.42 in996.3 mb 0.00 in0.0 mm 0.00 in0.0 mm 0.00 in0.0 mm
05:55 AM 64.9°F18.3°C 51.6°F10.9°C 62% 1.6 mph S2.6 kmh S 6.9 mph11.1 kmh 29.42 in996.3 mb 0.00 in0.0 mm 0.00 in0.0 mm 0.00 in0.0 mm
06:00 AM 65.1°F18.4°C 51.8°F11.0°C 62% 2.2 mph S3.5 kmh S 5.4 mph8.7 kmh 29.41 in995.9 mb 0.00 in0.0 mm 0.00 in0.0 mm 0.00 in0.0 mm
06:05 AM 64.9°F18.3°C 51.6°F10.9°C 62% 0.7 mph S1.1 kmh S 4.5 mph7.2 kmh 29.42 in996.3 mb 0.00 in0.0 mm 0.00 in0.0 mm 0.00 in0.0 mm
06:10 AM 64.8°F18.2°C 51.5°F10.8°C 62% 0.7 mph S1.1 kmh S 3.1 mph5.0 kmh 29.43 in996.6 mb 0.00 in0.0 mm 0.00 in0.0 mm 0.00 in0.0 mm
06:15 AM 64.6°F18.1°C 51.3°F10.7°C 62% 1.6 mph S2.6 kmh S 3.1 mph5.0 kmh 29.42 in996.3 mb 0.00 in0.0 mm 0.00 in0.0 mm 0.00 in0.0 mm
06:20 AM 64.4°F18.0°C 51.1°F10.6°C 62% Calm Calm 2.2 mph3.5 kmh 29.43 in996.6 mb 0.00 in0.0 mm 0.00 in0.0 mm 0.00 in0.0 mm
06:25 AM 64.4°F18.0°C 51.1°F10.6°C 62% 0.7 mph S1.1 kmh S 2.2 mph3.5 kmh 29.43 in996.6 mb 0.00 in0.0 mm 0.00 in0.0 mm 0.00 in0.0 mm
06:30 AM 64.4°F18.0°C 51.1°F10.6°C 62% Calm Calm 3.1 mph5.0 kmh 29.43 in996.6 mb 0.00 in0.0 mm 0.00 in0.0 mm 0.00 in0.0 mm
06:35 AM 64.4°F18.0°C 51.1°F10.6°C 62% 1.6 mph S2.6 kmh S 3.1 mph5.0 kmh 29.43 in996.6 mb 0.00 in0.0 mm 0.00 in0.0 mm 0.00 in0.0 mm
06:40 AM 64.6°F18.1°C 51.3°F10.7°C 62% Calm Calm 3.1 mph5.0 kmh 29.43 in996.6 mb 0.00 in0.0 mm 0.00 in0.0 mm 0.00 in0.0 mm
06:45 AM 64.8°F18.2°C 51.5°F10.8°C 62% 1.6 mph S2.6 kmh S 3.1 mph5.0 kmh 29.43 in996.6 mb 0.00 in0.0 mm 0.00 in0.0 mm 0.00 in0.0 mm
06:50 AM 64.9°F18.3°C 51.6°F10.9°C 62% 1.6 mph S2.6 kmh S 3.1 mph5.0 kmh 29.42 in996.3 mb 0.00 in0.0 mm 0.00 in0.0 mm 0.00 in0.0 mm
06:55 AM 65.1°F18.4°C 51.8°F11.0°C 62% 0.7 mph S1.1 kmh S 3.1 mph5.0 kmh 29.43 in996.6 mb 0.00 in0.0 mm 0.00 in0.0 mm 0.00 in0.0 mm
07:00 AM 65.5°F18.6°C 52.1°F11.2°C 62% 0.7 mph S1.1 kmh S 3.1 mph5.0 kmh 29.43 in996.6 mb 0.00 in0.0 mm 0.00 in0.0 mm 0.00 in0.0 mm
07:05 AM 65.7°F18.7°C 52.3°F11.3°C 62% Calm Calm 3.1 mph5.0 kmh 29.43 in996.6 mb 0.00 in0.0 mm 0.00 in0.0 mm 0.00 in0.0 mm
07:10 AM 65.8°F18.8°C 52.5°F11.4°C 62% 0.7 mph S1.1 kmh S 2.2 mph3.5 kmh 29.43 in996.6 mb 0.00 in0.0 mm 0.00 in0.0 mm 0.00 in0.0 mm
07:15 AM 65.8°F18.8°C 52.5°F11.4°C 62% 0.7 mph S1.1 kmh S 2.2 mph3.5 kmh 29.43 in996.6 mb 0.00 in0.0 mm 0.00 in0.0 mm 0.00 in0.0 mm
07:20 AM 66.4°F19.1°C 53.0°F11.7°C 62% Calm Calm 3.1 mph5.0 kmh 29.43 in996.6 mb 0.00 in0.0 mm 0.00 in0.0 mm 0.00 in0.0 mm
07:25 AM 66.9°F19.4°C 53.5°F11.9°C 62% Calm Calm 3.1 mph5.0 kmh 29.43 in996.6 mb 0.00 in0.0 mm 0.00 in0.0 mm 0.00 in0.0 mm
07:30 AM 67.1°F19.5°C 53.7°F12.1°C 62% Calm Calm 3.1 mph5.0 kmh 29.43 in996.6 mb 0.00 in0.0 mm 0.00 in0.0 mm 0.00 in0.0 mm
07:35 AM 67.6°F19.8°C 54.2°F12.3°C 62% 0.7 mph S1.1 kmh S 3.1 mph5.0 kmh 29.43 in996.6 mb 0.00 in0.0 mm 0.00 in0.0 mm 0.00 in0.0 mm
07:40 AM 68.2°F20.1°C 54.7°F12.6°C 62% 0.7 mph S1.1 kmh S 3.1 mph5.0 kmh 29.43 in996.6 mb 0.00 in0.0 mm 0.00 in0.0 mm 0.00 in0.0 mm
07:45 AM 68.7°F20.4°C 55.2°F12.9°C 62% 1.6 mph S2.6 kmh S 3.1 mph5.0 kmh 29.43 in996.6 mb 0.00 in0.0 mm 0.00 in0.0 mm 0.00 in0.0 mm
07:50 AM 69.4°F20.8°C 55.9°F13.3°C 62% Calm Calm 2.2 mph3.5 kmh 29.44 in997.0 mb 0.00 in0.0 mm 0.00 in0.0 mm 0.00 in0.0 mm
07:55 AM 68.9°F20.5°C 55.4°F13.0°C 62% 1.6 mph S2.6 kmh S 2.2 mph3.5 kmh 29.43 in996.6 mb 0.00 in0.0 mm 0.00 in0.0 mm 0.00 in0.0 mm
08:00 AM 68.2°F20.1°C 54.7°F12.6°C 62% Calm Calm 2.2 mph3.5 kmh 29.44 in997.0 mb 0.00 in0.0 mm 0.00 in0.0 mm 0.00 in0.0 mm
08:05 AM 68.0°F20.0°C 54.5°F12.5°C 62% 0.7 mph S1.1 kmh S 2.2 mph3.5 kmh 29.43 in996.6 mb 0.00 in0.0 mm 0.00 in0.0 mm 0.00 in0.0 mm
08:10 AM 68.4°F20.2°C 54.9°F12.7°C 62% Calm Calm 2.2 mph3.5 kmh 29.43 in996.6 mb 0.00 in0.0 mm 0.00 in0.0 mm 0.00 in0.0 mm
08:15 AM 68.9°F20.5°C 55.4°F13.0°C 62% Calm Calm 1.6 mph2.6 kmh 29.43 in996.6 mb 0.00 in0.0 mm 0.00 in0.0 mm 0.00 in0.0 mm
08:20 AM 69.1°F20.6°C 55.5°F13.1°C 62% 0.7 mph S1.1 kmh S 3.1 mph5.0 kmh 29.43 in996.6 mb 0.00 in0.0 mm 0.00 in0.0 mm 0.00 in0.0 mm
08:25 AM 69.6°F20.9°C 56.0°F13.3°C 62% 0.7 mph S1.1 kmh S 3.1 mph5.0 kmh 29.43 in996.6 mb 0.00 in0.0 mm 0.00 in0.0 mm 0.00 in0.0 mm
08:30 AM 69.4°F20.8°C 55.9°F13.3°C 62% 0.7 mph S1.1 kmh S 3.1 mph5.0 kmh 29.44 in997.0 mb 0.00 in0.0 mm 0.00 in0.0 mm 0.00 in0.0 mm
08:35 AM 69.6°F20.9°C 56.0°F13.3°C 62% 0.7 mph S1.1 kmh S 3.1 mph5.0 kmh 29.43 in996.6 mb 0.00 in0.0 mm 0.00 in0.0 mm 0.00 in0.0 mm
08:40 AM 70.0°F21.1°C 56.4°F13.6°C 62% 1.6 mph S2.6 kmh S 3.8 mph6.1 kmh 29.43 in996.6 mb 0.00 in0.0 mm 0.00 in0.0 mm 0.00 in0.0 mm
08:45 AM 70.3°F21.3°C 56.7°F13.7°C 62% 1.6 mph S2.6 kmh S 3.8 mph6.1 kmh 29.43 in996.6 mb 0.00 in0.0 mm 0.00 in0.0 mm 0.00 in0.0 mm
08:50 AM 70.7°F21.5°C 57.1°F13.9°C 62% 1.6 mph S2.6 kmh S 3.8 mph6.1 kmh 29.42 in996.3 mb 0.00 in0.0 mm 0.00 in0.0 mm 0.00 in0.0 mm
08:55 AM 70.9°F21.6°C 57.2°F14.0°C 62% 0.7 mph S1.1 kmh S 3.1 mph5.0 kmh 29.43 in996.6 mb 0.00 in0.0 mm 0.00 in0.0 mm 0.00 in0.0 mm
09:00 AM 70.5°F21.4°C 56.9°F13.8°C 62% Calm Calm 2.2 mph3.5 kmh 29.43 in996.6 mb 0.00 in0.0 mm 0.00 in0.0 mm 0.00 in0.0 mm
09:05 AM 70.9°F21.6°C 57.2°F14.0°C 62% 1.6 mph S2.6 kmh S 4.5 mph7.2 kmh 29.43 in996.6 mb 0.00 in0.0 mm 0.00 in0.0 mm 0.00 in0.0 mm
09:10 AM 71.4°F21.9°C 57.7°F14.3°C 62% Calm Calm 4.5 mph7.2 kmh 29.43 in996.6 mb 0.00 in0.0 mm 0.00 in0.0 mm 0.00 in0.0 mm
09:15 AM 71.6°F22.0°C 57.9°F14.4°C 62% Calm Calm 2.2 mph3.5 kmh 29.43 in996.6 mb 0.00 in0.0 mm 0.00 in0.0 mm 0.00 in0.0 mm
09:20 AM 71.4°F21.9°C 57.7°F14.3°C 62% 0.7 mph SW1.1 kmh SW 2.2 mph3.5 kmh 29.43 in996.6 mb 0.00 in0.0 mm 0.00 in0.0 mm 0.00 in0.0 mm
09:25 AM 71.1°F21.7°C 57.4°F14.1°C 62% Calm Calm 2.2 mph3.5 kmh 29.43 in996.6 mb 0.00 in0.0 mm 0.00 in0.0 mm 0.00 in0.0 mm
09:30 AM 71.1°F21.7°C 57.4°F14.1°C 62% Calm Calm 1.6 mph2.6 kmh 29.43 in996.6 mb 0.00 in0.0 mm 0.00 in0.0 mm 0.00 in0.0 mm
09:35 AM 70.5°F21.4°C 56.9°F13.8°C 62% 0.7 mph N1.1 kmh N 1.6 mph2.6 kmh 29.42 in996.3 mb 0.00 in0.0 mm 0.00 in0.0 mm 0.00 in0.0 mm
09:40 AM 70.3°F21.3°C 56.7°F13.7°C 62% 0.7 mph N1.1 kmh N 2.2 mph3.5 kmh 29.42 in996.3 mb 0.00 in0.0 mm 0.00 in0.0 mm 0.00 in0.0 mm
09:45 AM 70.0°F21.1°C 56.4°F13.6°C 62% 0.7 mph N1.1 kmh N 2.2 mph3.5 kmh 29.43 in996.6 mb 0.00 in0.0 mm 0.00 in0.0 mm 0.00 in0.0 mm
09:50 AM 70.2°F21.2°C 56.6°F13.7°C 62% Calm Calm 2.2 mph3.5 kmh 29.42 in996.3 mb 0.00 in0.0 mm 0.00 in0.0 mm 0.00 in0.0 mm
09:55 AM 70.3°F21.3°C 56.7°F13.7°C 62% Calm Calm 2.2 mph3.5 kmh 29.42 in996.3 mb 0.00 in0.0 mm 0.00 in0.0 mm 0.00 in0.0 mm
10:00 AM 69.6°F20.9°C 56.0°F13.3°C 62% Calm Calm 1.6 mph2.6 kmh 29.42 in996.3 mb 0.00 in0.0 mm 0.00 in0.0 mm 0.00 in0.0 mm
10:05 AM 69.1°F20.6°C 55.5°F13.1°C 62% Calm Calm 0.7 mph1.1 kmh 29.42 in996.3 mb 0.00 in0.0 mm 0.00 in0.0 mm 0.00 in0.0 mm
10:10 AM 69.1°F20.6°C 55.5°F13.1°C 62% Calm Calm 0.7 mph1.1 kmh 29.41 in995.9 mb 0.00 in0.0 mm 0.00 in0.0 mm 0.00 in0.0 mm
10:15 AM 69.3°F20.7°C 55.7°F13.2°C 62% Calm Calm 1.6 mph2.6 kmh 29.42 in996.3 mb 0.00 in0.0 mm 0.00 in0.0 mm 0.00 in0.0 mm
10:20 AM 69.3°F20.7°C 55.7°F13.2°C 62% Calm Calm 1.6 mph2.6 kmh 29.42 in996.3 mb 0.00 in0.0 mm 0.00 in0.0 mm 0.00 in0.0 mm
10:25 AM 69.4°F20.8°C 55.9°F13.3°C 62% Calm Calm 1.6 mph2.6 kmh 29.43 in996.6 mb 0.00 in0.0 mm 0.00 in0.0 mm 0.00 in0.0 mm
10:30 AM 69.6°F20.9°C 56.0°F13.3°C 62% Calm Calm 1.6 mph2.6 kmh 29.42 in996.3 mb 0.00 in0.0 mm 0.00 in0.0 mm 0.00 in0.0 mm
10:35 AM 69.4°F20.8°C 55.9°F13.3°C 62% Calm Calm 3.1 mph5.0 kmh 29.43 in996.6 mb 0.00 in0.0 mm 0.00 in0.0 mm 0.00 in0.0 mm
10:40 AM 69.3°F20.7°C 55.7°F13.2°C 62% Calm Calm 3.1 mph5.0 kmh 29.42 in996.3 mb 0.00 in0.0 mm 0.00 in0.0 mm 0.00 in0.0 mm
10:45 AM 69.1°F20.6°C 55.5°F13.1°C 62% Calm Calm 2.2 mph3.5 kmh 29.42 in996.3 mb 0.00 in0.0 mm 0.00 in0.0 mm 0.00 in0.0 mm
10:50 AM 69.1°F20.6°C 55.5°F13.1°C 62% 0.7 mph N1.1 kmh N 3.1 mph5.0 kmh 29.43 in996.6 mb 0.00 in0.0 mm 0.00 in0.0 mm 0.00 in0.0 mm
10:55 AM 69.3°F20.7°C 55.7°F13.2°C 62% Calm Calm 3.1 mph5.0 kmh 29.42 in996.3 mb 0.00 in0.0 mm 0.00 in0.0 mm 0.00 in0.0 mm
11:00 AM 69.3°F20.7°C 55.7°F13.2°C 62% Calm Calm 2.2 mph3.5 kmh 29.42 in996.3 mb 0.00 in0.0 mm 0.00 in0.0 mm 0.00 in0.0 mm
11:05 AM 69.1°F20.6°C 55.5°F13.1°C 62% Calm Calm 1.6 mph2.6 kmh 29.42 in996.3 mb 0.00 in0.0 mm 0.00 in0.0 mm 0.00 in0.0 mm
11:10 AM 69.1°F20.6°C 55.5°F13.1°C 62% Calm Calm 2.2 mph3.5 kmh 29.42 in996.3 mb 0.00 in0.0 mm 0.00 in0.0 mm 0.00 in0.0 mm
11:15 AM 68.9°F20.5°C 55.4°F13.0°C 62% 0.7 mph N1.1 kmh N 3.1 mph5.0 kmh 29.43 in996.6 mb 0.00 in0.0 mm 0.00 in0.0 mm 0.00 in0.0 mm
11:20 AM 69.1°F20.6°C 55.5°F13.1°C 62% Calm Calm 3.1 mph5.0 kmh 29.42 in996.3 mb 0.00 in0.0 mm 0.00 in0.0 mm 0.00 in0.0 mm
11:25 AM 68.9°F20.5°C 55.4°F13.0°C 62% Calm Calm 3.1 mph5.0 kmh 29.42 in996.3 mb 0.00 in0.0 mm 0.00 in0.0 mm 0.00 in0.0 mm
11:30 AM 68.7°F20.4°C 55.2°F12.9°C 62% Calm Calm 3.1 mph5.0 kmh 29.43 in996.6 mb 0.00 in0.0 mm 0.00 in0.0 mm 0.00 in0.0 mm
11:35 AM 68.4°F20.2°C 54.9°F12.7°C 62% Calm Calm 1.6 mph2.6 kmh 29.43 in996.6 mb 0.00 in0.0 mm 0.00 in0.0 mm 0.00 in0.0 mm
11:40 AM 68.4°F20.2°C 54.9°F12.7°C 62% Calm Calm 1.6 mph2.6 kmh 29.43 in996.6 mb 0.00 in0.0 mm 0.00 in0.0 mm 0.00 in0.0 mm
11:45 AM 68.5°F20.3°C 55.0°F12.8°C 62% Calm Calm 1.6 mph2.6 kmh 29.42 in996.3 mb 0.00 in0.0 mm 0.00 in0.0 mm 0.00 in0.0 mm
11:50 AM 68.7°F20.4°C 55.2°F12.9°C 62% Calm Calm 1.6 mph2.6 kmh 29.43 in996.6 mb 0.00 in0.0 mm 0.00 in0.0 mm 0.00 in0.0 mm
11:55 AM 68.9°F20.5°C 55.4°F13.0°C 62% Calm Calm 1.6 mph2.6 kmh 29.43 in996.6 mb 0.00 in0.0 mm 0.00 in0.0 mm 0.00 in0.0 mm
12:00 PM 68.9°F20.5°C 55.4°F13.0°C 62% 1.6 mph S2.6 kmh S 2.2 mph3.5 kmh 29.42 in996.3 mb 0.00 in0.0 mm 0.00 in0.0 mm 0.00 in0.0 mm
12:05 PM 68.9°F20.5°C 55.4°F13.0°C 62% 1.6 mph S2.6 kmh S 2.2 mph3.5 kmh 29.43 in996.6 mb 0.00 in0.0 mm 0.00 in0.0 mm 0.00 in0.0 mm
12:10 PM 68.7°F20.4°C 55.2°F12.9°C 62% 0.7 mph S1.1 kmh S 2.2 mph3.5 kmh 29.42 in996.3 mb 0.00 in0.0 mm 0.00 in0.0 mm 0.00 in0.0 mm
12:15 PM 68.4°F20.2°C 54.9°F12.7°C 62% 0.7 mph S1.1 kmh S 2.2 mph3.5 kmh 29.43 in996.6 mb 0.00 in0.0 mm 0.00 in0.0 mm 0.00 in0.0 mm
12:20 PM 68.4°F20.2°C 54.9°F12.7°C 62% 0.7 mph S1.1 kmh S 3.1 mph5.0 kmh 29.43 in996.6 mb 0.00 in0.0 mm 0.00 in0.0 mm 0.00 in0.0 mm
12:25 PM 68.4°F20.2°C 54.9°F12.7°C 62% Calm Calm 3.1 mph5.0 kmh 29.43 in996.6 mb 0.00 in0.0 mm 0.00 in0.0 mm 0.00 in0.0 mm
12:30 PM 68.5°F20.3°C 55.0°F12.8°C 62% Calm Calm 2.2 mph3.5 kmh 29.43 in996.6 mb 0.00 in0.0 mm 0.00 in0.0 mm 0.00 in0.0 mm
12:35 PM 68.4°F20.2°C 54.9°F12.7°C 62% Calm Calm 2.2 mph3.5 kmh 29.43 in996.6 mb 0.00 in0.0 mm 0.00 in0.0 mm 0.00 in0.0 mm
12:40 PM 68.2°F20.1°C 54.7°F12.6°C 62% 1.6 mph S2.6 kmh S 3.1 mph5.0 kmh 29.43 in996.6 mb 0.00 in0.0 mm 0.00 in0.0 mm 0.00 in0.0 mm
12:45 PM 67.3°F19.6°C 53.8°F12.1°C 62% 0.7 mph S1.1 kmh S 3.1 mph5.0 kmh 29.43 in996.6 mb 0.00 in0.0 mm 0.00 in0.0 mm 0.00 in0.0 mm
12:50 PM 67.1°F19.5°C 53.7°F12.1°C 62% 0.7 mph S1.1 kmh S 3.1 mph5.0 kmh 29.43 in996.6 mb 0.00 in0.0 mm 0.00 in0.0 mm 0.00 in0.0 mm
12:55 PM 66.7°F19.3°C 53.3°F11.8°C 62% 0.7 mph S1.1 kmh S 3.1 mph5.0 kmh 29.43 in996.6 mb 0.01 in0.3 mm 0.12 in3.0 mm 0.01 in0.3 mm
01:00 PM 66.6°F19.2°C 53.2°F11.8°C 62% Calm Calm 3.1 mph5.0 kmh 29.43 in996.6 mb 0.01 in0.3 mm 0.00 in0.0 mm 0.01 in0.3 mm
01:05 PM 66.2°F19.0°C 52.8°F11.6°C 62% 0.7 mph S1.1 kmh S 3.1 mph5.0 kmh 29.42 in996.3 mb 0.02 in0.5 mm 0.12 in3.0 mm 0.02 in0.5 mm
01:10 PM 66.0°F18.9°C 52.6°F11.4°C 62% Calm Calm 3.1 mph5.0 kmh 29.42 in996.3 mb 0.02 in0.5 mm 0.00 in0.0 mm 0.02 in0.5 mm
01:15 PM 65.8°F18.8°C 52.5°F11.4°C 62% 1.6 mph S2.6 kmh S 3.1 mph5.0 kmh 29.43 in996.6 mb 0.02 in0.5 mm 0.00 in0.0 mm 0.02 in0.5 mm
01:20 PM 65.8°F18.8°C 52.5°F11.4°C 62% Calm Calm 3.1 mph5.0 kmh 29.43 in996.6 mb 0.04 in1.0 mm 0.24 in6.1 mm 0.04 in1.0 mm
01:25 PM 66.0°F18.9°C 52.6°F11.4°C 62% Calm Calm 3.1 mph5.0 kmh 29.42 in996.3 mb 0.04 in1.0 mm 0.00 in0.0 mm 0.04 in1.0 mm
01:30 PM 66.0°F18.9°C 52.6°F11.4°C 62% 1.6 mph WSW2.6 kmh WSW 2.2 mph3.5 kmh 29.42 in996.3 mb 0.04 in1.0 mm 0.00 in0.0 mm 0.04 in1.0 mm
01:35 PM 65.8°F18.8°C 52.5°F11.4°C 62% Calm Calm 2.2 mph3.5 kmh 29.43 in996.6 mb 0.05 in1.3 mm 0.12 in3.0 mm 0.05 in1.3 mm
01:40 PM 66.0°F18.9°C 52.6°F11.4°C 62% Calm Calm 2.2 mph3.5 kmh 29.42 in996.3 mb 0.05 in1.3 mm 0.00 in0.0 mm 0.05 in1.3 mm
01:45 PM 66.2°F19.0°C 52.8°F11.6°C 62% Calm Calm 1.6 mph2.6 kmh 29.42 in996.3 mb 0.05 in1.3 mm 0.00 in0.0 mm 0.05 in1.3 mm
01:50 PM 65.8°F18.8°C 52.5°F11.4°C 62% Calm Calm 2.2 mph3.5 kmh 29.42 in996.3 mb 0.05 in1.3 mm 0.00 in0.0 mm 0.05 in1.3 mm
01:55 PM 66.2°F19.0°C 52.8°F11.6°C 62% Calm Calm 2.2 mph3.5 kmh 29.41 in995.9 mb 0.04 in1.0 mm 0.00 in0.0 mm 0.05 in1.3 mm
02:00 PM 66.2°F19.0°C 52.8°F11.6°C 62% Calm Calm 1.6 mph2.6 kmh 29.42 in996.3 mb 0.05 in1.3 mm 0.01 in0.3 mm 0.06 in1.5 mm
02:05 PM 66.2°F19.0°C 52.8°F11.6°C 62% Calm Calm 1.6 mph2.6 kmh 29.41 in995.9 mb 0.04 in1.0 mm 0.00 in0.0 mm 0.06 in1.5 mm
02:10 PM 65.7°F18.7°C 52.3°F11.3°C 62% 0.7 mph S1.1 kmh S 2.2 mph3.5 kmh 29.42 in996.3 mb 0.04 in1.0 mm 0.00 in0.0 mm 0.06 in1.5 mm
02:15 PM 65.5°F18.6°C 52.1°F11.2°C 62% Calm Calm 2.2 mph3.5 kmh 29.42 in996.3 mb 0.05 in1.3 mm 0.12 in3.0 mm 0.07 in1.8 mm
02:20 PM 65.5°F18.6°C 52.1°F11.2°C 62% Calm Calm 2.2 mph3.5 kmh 29.41 in995.9 mb 0.04 in1.0 mm 0.00 in0.0 mm 0.07 in1.8 mm
02:25 PM 66.0°F18.9°C 52.6°F11.4°C 62% Calm Calm 2.2 mph3.5 kmh 29.41 in995.9 mb 0.04 in1.0 mm 0.00 in0.0 mm 0.07 in1.8 mm
02:30 PM 66.2°F19.0°C 52.8°F11.6°C 62% 0.7 mph S1.1 kmh S 2.2 mph3.5 kmh 29.41 in995.9 mb 0.04 in1.0 mm 0.00 in0.0 mm 0.07 in1.8 mm
02:35 PM 66.0°F18.9°C 52.6°F11.4°C 62% 0.7 mph S1.1 kmh S 1.6 mph2.6 kmh 29.41 in995.9 mb 0.02 in0.5 mm 0.00 in0.0 mm 0.07 in1.8 mm
02:40 PM 65.8°F18.8°C 52.5°F11.4°C 62% Calm Calm 2.2 mph3.5 kmh 29.41 in995.9 mb 0.02 in0.5 mm 0.00 in0.0 mm 0.07 in1.8 mm
02:45 PM 66.0°F18.9°C 52.6°F11.4°C 62% Calm Calm 2.2 mph3.5 kmh 29.41 in995.9 mb 0.02 in0.5 mm 0.00 in0.0 mm 0.07 in1.8 mm
02:50 PM 66.2°F19.0°C 52.8°F11.6°C 62% Calm Calm 2.2 mph3.5 kmh 29.41 in995.9 mb 0.02 in0.5 mm 0.00 in0.0 mm 0.07 in1.8 mm
02:55 PM 66.2°F19.0°C 52.8°F11.6°C 62% Calm Calm 1.6 mph2.6 kmh 29.41 in995.9 mb 0.02 in0.5 mm 0.00 in0.0 mm 0.07 in1.8 mm
03:00 PM 66.4°F19.1°C 53.0°F11.7°C 62% Calm Calm 2.2 mph3.5 kmh 29.41 in995.9 mb 0.01 in0.3 mm 0.00 in0.0 mm 0.07 in1.8 mm
03:05 PM 66.4°F19.1°C 53.0°F11.7°C 62% Calm Calm 2.2 mph3.5 kmh 29.41 in995.9 mb 0.01 in0.3 mm 0.00 in0.0 mm 0.07 in1.8 mm
03:10 PM 66.4°F19.1°C 53.0°F11.7°C 62% Calm Calm 2.2 mph3.5 kmh 29.41 in995.9 mb 0.01 in0.3 mm 0.00 in0.0 mm 0.07 in1.8 mm
03:15 PM 66.4°F19.1°C 53.0°F11.7°C 62% Calm Calm 1.6 mph2.6 kmh 29.41 in995.9 mb 0.00 in0.0 mm 0.00 in0.0 mm 0.07 in1.8 mm
03:20 PM 66.0°F18.9°C 52.6°F11.4°C 62% Calm Calm 0.7 mph1.1 kmh 29.42 in996.3 mb 0.00 in0.0 mm 0.00 in0.0 mm 0.07 in1.8 mm
03:25 PM 66.0°F18.9°C 52.6°F11.4°C 62% Calm Calm 0.7 mph1.1 kmh 29.43 in996.6 mb 0.00 in0.0 mm 0.00 in0.0 mm 0.07 in1.8 mm
03:30 PM 66.0°F18.9°C 52.6°F11.4°C 62% Calm Calm 0.7 mph1.1 kmh 29.41 in995.9 mb 0.00 in0.0 mm 0.00 in0.0 mm 0.07 in1.8 mm
03:35 PM 66.0°F18.9°C 52.6°F11.4°C 62% Calm Calm -- 29.41 in995.9 mb 0.00 in0.0 mm 0.00 in0.0 mm 0.07 in1.8 mm
03:40 PM 66.2°F19.0°C 52.8°F11.6°C 62% Calm Calm 0.7 mph1.1 kmh 29.41 in995.9 mb 0.00 in0.0 mm 0.00 in0.0 mm 0.07 in1.8 mm
03:45 PM 66.6°F19.2°C 53.2°F11.8°C 62% Calm Calm 0.7 mph1.1 kmh 29.41 in995.9 mb 0.00 in0.0 mm 0.00 in0.0 mm 0.07 in1.8 mm
03:50 PM 66.9°F19.4°C 53.5°F11.9°C 62% Calm Calm -- 29.41 in995.9 mb 0.00 in0.0 mm 0.00 in0.0 mm 0.07 in1.8 mm
03:55 PM 66.9°F19.4°C 53.5°F11.9°C 62% Calm Calm -- 29.41 in995.9 mb 0.00 in0.0 mm 0.00 in0.0 mm 0.07 in1.8 mm
04:00 PM 66.7°F19.3°C 53.3°F11.8°C 62% Calm Calm 0.7 mph1.1 kmh 29.41 in995.9 mb 0.00 in0.0 mm 0.00 in0.0 mm 0.07 in1.8 mm
04:05 PM 66.6°F19.2°C 53.2°F11.8°C 62% Calm Calm 1.6 mph2.6 kmh 29.41 in995.9 mb 0.00 in0.0 mm 0.00 in0.0 mm 0.07 in1.8 mm
04:10 PM 66.6°F19.2°C 53.2°F11.8°C 62% Calm Calm 1.6 mph2.6 kmh 29.41 in995.9 mb 0.00 in0.0 mm 0.00 in0.0 mm 0.07 in1.8 mm
04:15 PM 66.6°F19.2°C 53.2°F11.8°C 62% Calm Calm 0.7 mph1.1 kmh 29.41 in995.9 mb 0.00 in0.0 mm 0.00 in0.0 mm 0.07 in1.8 mm
04:20 PM 66.6°F19.2°C 53.2°F11.8°C 62% 0.7 mph S1.1 kmh S 1.6 mph2.6 kmh 29.41 in995.9 mb 0.00 in0.0 mm 0.00 in0.0 mm 0.07 in1.8 mm
04:25 PM 66.4°F19.1°C 53.0°F11.7°C 62% 0.7 mph S1.1 kmh S 1.6 mph2.6 kmh 29.41 in995.9 mb 0.00 in0.0 mm 0.00 in0.0 mm 0.07 in1.8 mm
04:30 PM 66.2°F19.0°C 52.8°F11.6°C 62% 1.6 mph S2.6 kmh S 2.2 mph3.5 kmh 29.41 in995.9 mb 0.00 in0.0 mm 0.00 in0.0 mm 0.07 in1.8 mm
04:35 PM 66.0°F18.9°C 52.6°F11.4°C 62% Calm Calm 2.2 mph3.5 kmh 29.41 in995.9 mb 0.00 in0.0 mm 0.00 in0.0 mm 0.07 in1.8 mm
04:40 PM 65.8°F18.8°C 52.5°F11.4°C 62% 0.7 mph S1.1 kmh S 2.2 mph3.5 kmh 29.40 in995.6 mb 0.00 in0.0 mm 0.00 in0.0 mm 0.07 in1.8 mm
04:45 PM 65.7°F18.7°C 52.3°F11.3°C 62% Calm Calm 2.2 mph3.5 kmh 29.41 in995.9 mb 0.00 in0.0 mm 0.00 in0.0 mm 0.07 in1.8 mm
04:50 PM 65.7°F18.7°C 52.3°F11.3°C 62% Calm Calm 2.2 mph3.5 kmh 29.40 in995.6 mb 0.00 in0.0 mm 0.00 in0.0 mm 0.07 in1.8 mm
04:55 PM 65.7°F18.7°C 52.3°F11.3°C 62% Calm Calm 1.6 mph2.6 kmh 29.40 in995.6 mb 0.00 in0.0 mm 0.00 in0.0 mm 0.07 in1.8 mm
05:00 PM 65.8°F18.8°C 52.5°F11.4°C 62% Calm Calm 1.6 mph2.6 kmh 29.41 in995.9 mb 0.00 in0.0 mm 0.00 in0.0 mm 0.07 in1.8 mm
05:05 PM 65.8°F18.8°C 52.5°F11.4°C 62% Calm Calm 1.6 mph2.6 kmh 29.40 in995.6 mb 0.00 in0.0 mm 0.00 in0.0 mm 0.07 in1.8 mm
05:10 PM 65.8°F18.8°C 52.5°F11.4°C 62% Calm Calm 1.6 mph2.6 kmh 29.40 in995.6 mb 0.00 in0.0 mm 0.00 in0.0 mm 0.07 in1.8 mm
05:15 PM 65.8°F18.8°C 52.5°F11.4°C 62% Calm Calm 1.6 mph2.6 kmh 29.40 in995.6 mb 0.00 in0.0 mm 0.00 in0.0 mm 0.07 in1.8 mm
05:20 PM 65.7°F18.7°C 52.3°F11.3°C 62% 0.7 mph S1.1 kmh S 1.6 mph2.6 kmh 29.40 in995.6 mb 0.00 in0.0 mm 0.00 in0.0 mm 0.07 in1.8 mm
05:25 PM 65.3°F18.5°C 52.0°F11.1°C 62% Calm Calm 1.6 mph2.6 kmh 29.41 in995.9 mb 0.00 in0.0 mm 0.00 in0.0 mm 0.07 in1.8 mm
05:30 PM 65.3°F18.5°C 52.0°F11.1°C 62% 0.7 mph S1.1 kmh S 1.6 mph2.6 kmh 29.41 in995.9 mb 0.00 in0.0 mm 0.00 in0.0 mm 0.07 in1.8 mm
05:35 PM 65.1°F18.4°C 51.8°F11.0°C 62% Calm Calm 1.6 mph2.6 kmh 29.40 in995.6 mb 0.00 in0.0 mm 0.00 in0.0 mm 0.07 in1.8 mm
05:40 PM 64.9°F18.3°C 51.6°F10.9°C 62% Calm Calm 1.6 mph2.6 kmh 29.40 in995.6 mb 0.00 in0.0 mm 0.00 in0.0 mm 0.07 in1.8 mm
05:45 PM 64.8°F18.2°C 51.5°F10.8°C 62% Calm Calm 0.7 mph1.1 kmh 29.40 in995.6 mb 0.00 in0.0 mm 0.00 in0.0 mm 0.07 in1.8 mm
05:50 PM 64.8°F18.2°C 51.5°F10.8°C 62% Calm Calm 0.7 mph1.1 kmh 29.40 in995.6 mb 0.00 in0.0 mm 0.00 in0.0 mm 0.07 in1.8 mm
05:55 PM 64.8°F18.2°C 51.5°F10.8°C 62% Calm Calm 0.7 mph1.1 kmh 29.40 in995.6 mb 0.00 in0.0 mm 0.00 in0.0 mm 0.07 in1.8 mm
06:00 PM 64.8°F18.2°C 51.5°F10.8°C 62% Calm Calm 0.7 mph1.1 kmh 29.40 in995.6 mb 0.00 in0.0 mm 0.00 in0.0 mm 0.07 in1.8 mm
06:05 PM 64.8°F18.2°C 51.5°F10.8°C 62% 0.7 mph S1.1 kmh S 1.6 mph2.6 kmh 29.40 in995.6 mb 0.00 in0.0 mm 0.00 in0.0 mm 0.07 in1.8 mm
06:10 PM 64.6°F18.1°C 51.3°F10.7°C 62% 0.7 mph S1.1 kmh S 2.2 mph3.5 kmh 29.40 in995.6 mb 0.00 in0.0 mm 0.00 in0.0 mm 0.07 in1.8 mm
06:15 PM 64.4°F18.0°C 51.1°F10.6°C 62% Calm Calm 2.2 mph3.5 kmh 29.40 in995.6 mb 0.00 in0.0 mm 0.00 in0.0 mm 0.07 in1.8 mm
06:20 PM 64.4°F18.0°C 51.1°F10.6°C 62% Calm Calm 2.2 mph3.5 kmh 29.40 in995.6 mb 0.00 in0.0 mm 0.00 in0.0 mm 0.07 in1.8 mm
06:25 PM 64.4°F18.0°C 51.1°F10.6°C 62% 0.7 mph S1.1 kmh S 3.8 mph6.1 kmh 29.40 in995.6 mb 0.00 in0.0 mm 0.00 in0.0 mm 0.07 in1.8 mm
06:30 PM 64.4°F18.0°C 51.1°F10.6°C 62% 0.7 mph S1.1 kmh S 3.8 mph6.1 kmh 29.40 in995.6 mb 0.01 in0.3 mm 0.12 in3.0 mm 0.08 in2.0 mm
06:35 PM 64.4°F18.0°C 51.1°F10.6°C 62% Calm Calm 3.1 mph5.0 kmh 29.41 in995.9 mb 0.01 in0.3 mm 0.00 in0.0 mm 0.08 in2.0 mm
06:40 PM 64.4°F18.0°C 51.1°F10.6°C 62% Calm Calm 3.1 mph5.0 kmh 29.40 in995.6 mb 0.01 in0.3 mm 0.00 in0.0 mm 0.08 in2.0 mm
06:45 PM 64.4°F18.0°C 51.1°F10.6°C 62% 1.6 mph S2.6 kmh S 3.1 mph5.0 kmh 29.41 in995.9 mb 0.01 in0.3 mm 0.00 in0.0 mm 0.08 in2.0 mm
06:50 PM 64.2°F17.9°C 50.9°F10.5°C 62% 1.6 mph S2.6 kmh S 3.8 mph6.1 kmh 29.41 in995.9 mb 0.01 in0.3 mm 0.00 in0.0 mm 0.08 in2.0 mm
06:55 PM 64.2°F17.9°C 50.9°F10.5°C 62% 1.6 mph S2.6 kmh S 3.8 mph6.1 kmh 29.41 in995.9 mb 0.01 in0.3 mm 0.00 in0.0 mm 0.08 in2.0 mm
07:00 PM 64.0°F17.8°C 50.8°F10.4°C 62% 0.7 mph S1.1 kmh S 2.2 mph3.5 kmh 29.40 in995.6 mb 0.01 in0.3 mm 0.00 in0.0 mm 0.08 in2.0 mm
07:05 PM 63.9°F17.7°C 50.6°F10.3°C 62% 0.7 mph S1.1 kmh S 2.2 mph3.5 kmh 29.41 in995.9 mb 0.02 in0.5 mm 0.12 in3.0 mm 0.09 in2.3 mm
07:10 PM 63.9°F17.7°C 50.6°F10.3°C 62% Calm Calm 2.2 mph3.5 kmh 29.41 in995.9 mb 0.02 in0.5 mm 0.00 in0.0 mm 0.09 in2.3 mm
07:15 PM 63.7°F17.6°C 50.4°F10.2°C 62% 0.7 mph S1.1 kmh S 2.2 mph3.5 kmh 29.41 in995.9 mb 0.02 in0.5 mm 0.00 in0.0 mm 0.09 in2.3 mm
07:20 PM 63.7°F17.6°C 50.4°F10.2°C 62% Calm Calm 2.2 mph3.5 kmh 29.41 in995.9 mb 0.04 in1.0 mm 0.24 in6.1 mm 0.11 in2.8 mm
07:25 PM 63.7°F17.6°C 50.4°F10.2°C 62% Calm Calm 2.2 mph3.5 kmh 29.40 in995.6 mb 0.04 in1.0 mm 0.00 in0.0 mm 0.11 in2.8 mm
07:30 PM 63.9°F17.7°C 50.6°F10.3°C 62% Calm Calm 0.7 mph1.1 kmh 29.40 in995.6 mb 0.02 in0.5 mm 0.00 in0.0 mm 0.11 in2.8 mm
07:35 PM 63.9°F17.7°C 50.6°F10.3°C 62% Calm Calm 1.6 mph2.6 kmh 29.40 in995.6 mb 0.02 in0.5 mm 0.00 in0.0 mm 0.11 in2.8 mm
07:40 PM 63.9°F17.7°C 50.6°F10.3°C 62% 0.7 mph S1.1 kmh S 1.6 mph2.6 kmh 29.41 in995.9 mb 0.02 in0.5 mm 0.00 in0.0 mm 0.11 in2.8 mm
07:45 PM 63.9°F17.7°C 50.6°F10.3°C 62% 0.7 mph S1.1 kmh S 1.6 mph2.6 kmh 29.41 in995.9 mb 0.02 in0.5 mm 0.00 in0.0 mm 0.11 in2.8 mm
07:50 PM 63.7°F17.6°C 50.4°F10.2°C 62% Calm Calm 1.6 mph2.6 kmh 29.40 in995.6 mb 0.02 in0.5 mm 0.00 in0.0 mm 0.11 in2.8 mm
07:55 PM 63.7°F17.6°C 50.4°F10.2°C 62% Calm Calm 1.6 mph2.6 kmh 29.41 in995.9 mb 0.02 in0.5 mm 0.00 in0.0 mm 0.11 in2.8 mm
08:00 PM 63.7°F17.6°C 50.4°F10.2°C 62% Calm Calm 0.7 mph1.1 kmh 29.40 in995.6 mb 0.02 in0.5 mm 0.00 in0.0 mm 0.11 in2.8 mm
08:05 PM 63.7°F17.6°C 50.4°F10.2°C 62% Calm Calm -- 29.41 in995.9 mb 0.01 in0.3 mm 0.00 in0.0 mm 0.11 in2.8 mm
08:10 PM 63.7°F17.6°C 50.4°F10.2°C 62% Calm Calm 0.7 mph1.1 kmh 29.41 in995.9 mb 0.01 in0.3 mm 0.00 in0.0 mm 0.11 in2.8 mm
08:15 PM 63.7°F17.6°C 50.4°F10.2°C 62% Calm Calm 0.7 mph1.1 kmh 29.41 in995.9 mb 0.01 in0.3 mm 0.00 in0.0 mm 0.11 in2.8 mm
08:20 PM 63.7°F17.6°C 50.4°F10.2°C 62% Calm Calm -- 29.41 in995.9 mb 0.00 in0.0 mm 0.00 in0.0 mm 0.11 in2.8 mm
08:25 PM 63.7°F17.6°C 50.4°F10.2°C 62% Calm Calm -- 29.39 in995.3 mb 0.00 in0.0 mm 0.00 in0.0 mm 0.11 in2.8 mm
08:30 PM 63.5°F17.5°C 50.3°F10.2°C 62% Calm Calm 1.6 mph2.6 kmh 29.40 in995.6 mb 0.00 in0.0 mm 0.00 in0.0 mm 0.11 in2.8 mm
08:35 PM 63.5°F17.5°C 50.3°F10.2°C 62% Calm Calm 1.6 mph2.6 kmh 29.41 in995.9 mb 0.00 in0.0 mm 0.00 in0.0 mm 0.11 in2.8 mm
08:40 PM 63.5°F17.5°C 50.3°F10.2°C 62% Calm Calm 0.7 mph1.1 kmh 29.41 in995.9 mb 0.00 in0.0 mm 0.00 in0.0 mm 0.11 in2.8 mm
08:45 PM 63.3°F17.4°C 50.1°F10.1°C 62% Calm Calm 0.7 mph1.1 kmh 29.41 in995.9 mb 0.00 in0.0 mm 0.00 in0.0 mm 0.11 in2.8 mm
08:50 PM 63.3°F17.4°C 50.1°F10.1°C 62% Calm Calm -- 29.40 in995.6 mb 0.00 in0.0 mm 0.00 in0.0 mm 0.11 in2.8 mm
08:55 PM 63.3°F17.4°C 50.1°F10.1°C 62% Calm Calm -- 29.40 in995.6 mb 0.00 in0.0 mm 0.00 in0.0 mm 0.11 in2.8 mm
09:00 PM 63.1°F17.3°C 49.9°F9.9°C 62% Calm Calm -- 29.41 in995.9 mb 0.00 in0.0 mm 0.00 in0.0 mm 0.11 in2.8 mm
09:05 PM 63.0°F17.2°C 49.8°F9.9°C 62% Calm Calm -- 29.40 in995.6 mb 0.00 in0.0 mm 0.00 in0.0 mm 0.11 in2.8 mm
09:10 PM 62.8°F17.1°C 49.6°F9.8°C 62% Calm Calm -- 29.41 in995.9 mb 0.00 in0.0 mm 0.00 in0.0 mm 0.11 in2.8 mm
09:15 PM 62.8°F17.1°C 49.6°F9.8°C 62% Calm Calm 0.7 mph1.1 kmh 29.41 in995.9 mb 0.00 in0.0 mm 0.00 in0.0 mm 0.11 in2.8 mm
09:20 PM 62.8°F17.1°C 49.6°F9.8°C 62% Calm Calm 1.6 mph2.6 kmh 29.41 in995.9 mb 0.00 in0.0 mm 0.00 in0.0 mm 0.11 in2.8 mm
09:25 PM 62.8°F17.1°C 49.6°F9.8°C 62% Calm Calm 1.6 mph2.6 kmh 29.41 in995.9 mb 0.00 in0.0 mm 0.00 in0.0 mm 0.11 in2.8 mm
09:30 PM 62.8°F17.1°C 49.6°F9.8°C 62% Calm Calm 0.7 mph1.1 kmh 29.41 in995.9 mb 0.00 in0.0 mm 0.00 in0.0 mm 0.11 in2.8 mm
09:35 PM 62.8°F17.1°C 49.6°F9.8°C 62% Calm Calm 0.7 mph1.1 kmh 29.40 in995.6 mb 0.00 in0.0 mm 0.00 in0.0 mm 0.11 in2.8 mm
09:40 PM 62.8°F17.1°C 49.6°F9.8°C 62% Calm Calm -- 29.41 in995.9 mb 0.00 in0.0 mm 0.00 in0.0 mm 0.11 in2.8 mm
09:45 PM 62.6°F17.0°C 49.4°F9.7°C 62% Calm Calm -- 29.41 in995.9 mb 0.00 in0.0 mm 0.00 in0.0 mm 0.11 in2.8 mm
09:50 PM 62.4°F16.9°C 49.2°F9.6°C 62% Calm Calm -- 29.41 in995.9 mb 0.00 in0.0 mm 0.00 in0.0 mm 0.11 in2.8 mm
09:55 PM 62.2°F16.8°C 49.1°F9.5°C 62% Calm Calm -- 29.41 in995.9 mb 0.00 in0.0 mm 0.00 in0.0 mm 0.11 in2.8 mm
10:00 PM 62.2°F16.8°C 49.1°F9.5°C 62% Calm Calm -- 29.41 in995.9 mb 0.00 in0.0 mm 0.00 in0.0 mm 0.11 in2.8 mm
10:05 PM 62.1°F16.7°C 48.9°F9.4°C 62% Calm Calm -- 29.41 in995.9 mb 0.00 in0.0 mm 0.00 in0.0 mm 0.11 in2.8 mm
10:10 PM 62.1°F16.7°C 48.9°F9.4°C 62% Calm Calm -- 29.41 in995.9 mb 0.00 in0.0 mm 0.00 in0.0 mm 0.11 in2.8 mm
10:15 PM 62.1°F16.7°C 48.9°F9.4°C 62% 0.7 mph S1.1 kmh S 1.6 mph2.6 kmh 29.41 in995.9 mb 0.00 in0.0 mm 0.00 in0.0 mm 0.11 in2.8 mm
10:20 PM 62.1°F16.7°C 48.9°F9.4°C 62% Calm Calm 1.6 mph2.6 kmh 29.41 in995.9 mb 0.00 in0.0 mm 0.00 in0.0 mm 0.11 in2.8 mm
10:25 PM 62.1°F16.7°C 48.9°F9.4°C 62% Calm Calm 1.6 mph2.6 kmh 29.41 in995.9 mb 0.00 in0.0 mm 0.00 in0.0 mm 0.11 in2.8 mm
10:30 PM 62.2°F16.8°C 49.1°F9.5°C 62% 0.7 mph S1.1 kmh S 1.6 mph2.6 kmh 29.42 in996.3 mb 0.00 in0.0 mm 0.00 in0.0 mm 0.11 in2.8 mm
10:35 PM 62.2°F16.8°C 49.1°F9.5°C 62% 0.7 mph S1.1 kmh S 1.6 mph2.6 kmh 29.41 in995.9 mb 0.00 in0.0 mm 0.00 in0.0 mm 0.11 in2.8 mm
10:40 PM 62.1°F16.7°C 48.9°F9.4°C 62% Calm Calm 2.2 mph3.5 kmh 29.41 in995.9 mb 0.00 in0.0 mm 0.00 in0.0 mm 0.11 in2.8 mm
10:45 PM 62.1°F16.7°C 48.9°F9.4°C 62% Calm Calm 2.2 mph3.5 kmh 29.42 in996.3 mb 0.00 in0.0 mm 0.00 in0.0 mm 0.11 in2.8 mm
10:50 PM 62.1°F16.7°C 48.9°F9.4°C 62% Calm Calm 1.6 mph2.6 kmh 29.41 in995.9 mb 0.00 in0.0 mm 0.00 in0.0 mm 0.11 in2.8 mm
10:55 PM 62.1°F16.7°C 48.9°F9.4°C 62% Calm Calm 2.2 mph3.5 kmh 29.42 in996.3 mb 0.00 in0.0 mm 0.00 in0.0 mm 0.11 in2.8 mm
11:00 PM 62.1°F16.7°C 48.9°F9.4°C 62% Calm Calm 2.2 mph3.5 kmh 29.41 in995.9 mb 0.00 in0.0 mm 0.00 in0.0 mm 0.11 in2.8 mm
11:05 PM 61.9°F16.6°C 48.7°F9.3°C 62% Calm Calm 1.6 mph2.6 kmh 29.41 in995.9 mb 0.00 in0.0 mm 0.00 in0.0 mm 0.11 in2.8 mm
11:10 PM 61.7°F16.5°C 48.6°F9.2°C 62% Calm Calm 0.7 mph1.1 kmh 29.41 in995.9 mb 0.00 in0.0 mm 0.00 in0.0 mm 0.11 in2.8 mm
11:15 PM 61.5°F16.4°C 48.4°F9.1°C 62% Calm Calm 1.6 mph2.6 kmh 29.42 in996.3 mb 0.00 in0.0 mm 0.00 in0.0 mm 0.11 in2.8 mm
11:20 PM 61.5°F16.4°C 48.4°F9.1°C 62% Calm Calm 1.6 mph2.6 kmh 29.42 in996.3 mb 0.00 in0.0 mm 0.00 in0.0 mm 0.11 in2.8 mm
11:25 PM 61.5°F16.4°C 48.4°F9.1°C 62% Calm Calm 0.7 mph1.1 kmh 29.42 in996.3 mb 0.00 in0.0 mm 0.00 in0.0 mm 0.11 in2.8 mm
11:30 PM 61.5°F16.4°C 48.4°F9.1°C 62% Calm Calm 1.6 mph2.6 kmh 29.42 in996.3 mb 0.00 in0.0 mm 0.00 in0.0 mm 0.11 in2.8 mm
11:35 PM 61.5°F16.4°C 48.4°F9.1°C 62% 0.7 mph S1.1 kmh S 1.6 mph2.6 kmh 29.42 in996.3 mb 0.00 in0.0 mm 0.00 in0.0 mm 0.11 in2.8 mm
11:40 PM 61.3°F16.3°C 48.2°F9.0°C 62% 0.7 mph S1.1 kmh S 2.2 mph3.5 kmh 29.41 in995.9 mb 0.00 in0.0 mm 0.00 in0.0 mm 0.11 in2.8 mm
11:50 PM 61.2°F16.2°C 48.1°F8.9°C 62% 2.2 mph S3.5 kmh S 3.8 mph6.1 kmh 29.42 in996.3 mb 0.00 in0.0 mm 0.00 in0.0 mm 0.11 in2.8 mm
11:55 PM 61.3°F16.3°C 48.2°F9.0°C 62% 0.7 mph S1.1 kmh S 3.8 mph6.1 kmh 29.42 in996.3 mb 0.00 in0.0 mm 0.00 in0.0 mm 0.11 in2.8 mm